Airfield :
LOGIN :

Register | Disclaimer

   EN    FR    IT 

 










Legend :    VFR   Marginal VFR   IFR   Intensive IFR   Very Intensive IFR
Visi :
Ceiling :
>= 8 km
>= 3000ft
5 to 8 km
1000 to 3000 ft
1500m to 5 km
500 to 1000 ft
800 to 1500m
200 to 500 ft
< 800m
< 200 ft
Symbols :   Thunderstorms  Fog  Heavy snow  Heavy precipitations  Wind > 20 kt
SIGMETs :     Misc.  Thunderstorms  Icing  Turbulence  Mountain Waves  Volcanic Ashes







- Airport Elevation : 79 ft
- IATA code : SPU


LDSP - Split

CURRENT METAR :
  • 211500Z 22008KT CAVOK 22/07 Q1022 NOSIG

EXPIRED METARs :
  • 211430Z 22008KT CAVOK 22/06 Q1022 NOSIG
  • 211400Z 22008KT CAVOK 22/07 Q1022 NOSIG
  • 211330Z 24010KT CAVOK 22/04 Q1022 NOSIG
  • 211300Z 23007KT 200V260 CAVOK 23/06 Q1023 NOSIG
  • 211230Z 17005KT 130V210 CAVOK 23/02 Q1023 BECMG 23007KT

TAF TAF LDSP
Valid from the 21 at 12:00 until the 22 at 12:00 UTC


211125Z 2112/2212 23007KT CAVOK TX24/2113Z TN13/2200Z
BECMG 2115/2117 28005KT
No reported NOTAMs for that airfield.



MET'MAP, your aeronautical weather chart ! - Copyright ORBIFLY December 2007 - Disclaimer

ORBIFLY MET'MAP TEAM :

Programming & Development : Alexandra Zaïnal
Concept & Development : Baudouin d'Aumeries
Co-Development & Prog : Marc-Olivier Méhu
Technical & hardware support : Manuel Goepfert

Contact : metmap@orbifly.com




SOURCES & CREDITS :

   NOAA